Theseus — V2OU — position and weather

sailwx.info

Track history (hours):
 
Tides and Currents Weather Stations Pressure Air Temp Water Temp Dewpoint Dewpoint Depression Visibility Wind Speed Wind Dir Waves Ship Positions

Theseus

Last reported at 2018-Aug-20 11:12 UTC. Time now 2018-Aug-20 16:47 UTC.
Position N 60°02' E 004°32'.

Length 90 m; draft 4.8 m.

Type: Cargo ship. MMSI: 304011027.

Date/timePositionNaut miles runAvg speedWind from/ knotsBaromVisibWave heightAir tempDewpointWater temp
2018-Aug-20 11:12N 60°02' E 004°32'211.1
2018-Aug-20 11:03N 60°03' E 004°32'111.2
2018-Aug-20 11:00N 60°04' E 004°32'510.5
2018-Aug-20 10:30N 60°09' E 004°31'4 9.9
2018-Aug-20 10:03N 60°14' E 004°31'1 9.7
2018-Aug-20 10:00N 60°14' E 004°31'510.0
2018-Aug-20 09:30N 60°19' E 004°30'510.1
2018-Aug-20 09:03N 60°24' E 004°28'110.2
2018-Aug-20 08:59N 60°24' E 004°28'510.0
2018-Aug-20 08:30N 60°29' E 004°27'4 9.8
2018-Aug-20 08:03N 60°33' E 004°25'1 9.8
2018-Aug-20 08:00N 60°34' E 004°25'5 9.4
2018-Aug-20 07:30N 60°38' E 004°23'4 9.1
2018-Aug-20 07:02N 60°43' E 004°21'0 9.2
2018-Aug-20 07:00N 60°43' E 004°21'5 9.6
2018-Aug-20 06:30N 60°48' E 004°19'5 9.5
2018-Aug-20 06:01N 60°52' E 004°17'0 9.3
2018-Aug-20 06:00N 60°52' E 004°17'5 9.6
2018-Aug-20 05:30N 60°57' E 004°17'4 9.5
2018-Aug-20 05:03N 61°01' E 004°18'0 9.3
2018-Aug-20 05:00N 61°02' E 004°18'2 8.8
2018-Aug-20 04:46N 61°04' E 004°19'2 8.8
2018-Aug-20 04:30N 61°06' E 004°19'5 8.8
2018-Aug-20 04:00N 61°11' E 004°21'5 9.2
2018-Aug-20 03:29N 61°15' E 004°23'5 9.5
2018-Aug-20 03:00N 61°20' E 004°24'5 9.4
2018-Aug-20 02:30N 61°24' E 004°26'5 9.7
2018-Aug-20 02:00N 61°29' E 004°28'5 9.9
2018-Aug-20 01:29N 61°34' E 004°29'5 9.5
2018-Aug-20 01:00N 61°39' E 004°31'5 9.7
2018-Aug-20 00:30N 61°43' E 004°34'5 9.9
2018-Aug-19 23:59N 61°48' E 004°38'510.0
2018-Aug-19 23:30N 61°53' E 004°41'5 9.8
2018-Aug-19 23:00N 61°57' E 004°43'5 9.2
2018-Aug-19 22:29N 62°02' E 004°45'4 9.0
2018-Aug-19 22:00N 62°06' E 004°49'4 8.5
2018-Aug-19 21:29N 62°09' E 004°55'4 9.0
2018-Aug-19 21:00N 62°13' E 005°01'5 9.3
2018-Aug-19 20:30N 62°17' E 005°07'4 9.0
2018-Aug-19 20:00N 62°20' E 005°13'4 8.7
2018-Aug-19 19:30N 62°23' E 005°19'5 9.0
2018-Aug-19 19:00N 62°27' E 005°26'4 8.9
2018-Aug-19 18:30N 62°30' E 005°32'5 9.0
2018-Aug-19 18:00N 62°33' E 005°38'4 8.8
2018-Aug-19 17:30N 62°37' E 005°45'4 8.7
2018-Aug-19 17:00N 62°40' E 005°51'4 7.7
2018-Aug-19 16:30N 62°43' E 005°56'4 8.1
2018-Aug-19 16:00N 62°46' E 006°01'4 8.3
2018-Aug-19 15:29N 62°50' E 006°07'4 7.7
2018-Aug-19 15:00N 62°53' E 006°11'4 7.4
2018-Aug-19 14:30N 62°56' E 006°16'4 7.2
2018-Aug-19 13:59N 62°59' E 006°21'3 7.1
2018-Aug-19 13:30N 63°01' E 006°27'4 6.9
2018-Aug-19 13:00N 63°04' E 006°32'3 6.3
2018-Aug-19 12:30N 63°06' E 006°37'3 6.2
2018-Aug-19 12:00N 63°08' E 006°41'3 6.5
2018-Aug-19 11:30N 63°11' E 006°46'3 6.4
2018-Aug-19 11:00N 63°13' E 006°50'3 6.8
2018-Aug-19 10:30N 63°16' E 006°54'3 6.4
2018-Aug-19 10:00N 63°19' E 006°58'3 6.7
2018-Aug-19 09:30N 63°22' E 007°02'3 6.0
2018-Aug-19 09:00N 63°24' E 007°07'3 5.9
2018-Aug-19 08:30N 63°26' E 007°11'3 5.8
2018-Aug-19 08:00N 63°29' E 007°15'3 5.7
2018-Aug-19 07:29N 63°31' E 007°19'3 5.4
2018-Aug-19 07:00N 63°33' E 007°22'3 5.6
2018-Aug-19 06:30N 63°35' E 007°27'3 5.3
2018-Aug-19 05:59N 63°37' E 007°31'2 5.0
2018-Aug-19 05:30N 63°39' E 007°34'3 5.5
2018-Aug-19 05:00N 63°41' E 007°38'3 5.0
2018-Aug-19 04:29N 63°43' E 007°42'2 5.0
2018-Aug-19 04:00N 63°45' E 007°46'3 5.2
2018-Aug-19 03:30N 63°47' E 007°50'2 4.9
2018-Aug-19 03:00N 63°49' E 007°53'2 4.7
2018-Aug-19 02:30N 63°51' E 007°56'2 4.9
2018-Aug-19 02:00N 63°53' E 007°60'2 4.5
2018-Aug-19 01:30N 63°54' E 008°02'2 4.5
2018-Aug-19 01:00N 63°56' E 008°05'2 4.8
2018-Aug-19 00:30N 63°58' E 008°09'163 6.3
2018-Aug-17 22:42N 66°14' E 011°44'2 8.0
2018-Aug-17 22:29N 66°15' E 011°48'4 8.0
2018-Aug-17 22:00N 66°16' E 011°57'4 8.2
2018-Aug-17 21:30N 66°17' E 012°07'4 9.0
2018-Aug-17 21:01N 66°17' E 012°18'5 9.7
2018-Aug-17 20:30N 66°15' E 012°29'5 9.8
2018-Aug-17 20:00N 66°13' E 012°40'510.2
2018-Aug-17 19:30N 66°10' E 012°51'5 9.4
2018-Aug-17 19:00N 66°10' E 013°02'5 9.7
2018-Aug-17 18:30N 66°12' E 013°13'4 8.6
2018-Aug-17 18:00N 66°14' E 013°23'510.1
2018-Aug-17 17:29N 66°14' E 013°36'510.0
2018-Aug-17 17:00N 66°15' E 013°47'510.3
2018-Aug-17 16:30N 66°17' E 013°60'3 6.7
2018-Aug-17 16:00N 66°18' E 014°07'0 0.1
2018-Aug-17 15:30N 66°18' E 014°07'0 0.0
2018-Aug-17 14:59N 66°18' E 014°07'0 0.0
2018-Aug-17 13:59N 66°18' E 014°07'0 0.0
2018-Aug-17 13:29N 66°18' E 014°07'0 0.0
2018-Aug-17 12:59N 66°18' E 014°07'0 0.0
2018-Aug-17 12:29N 66°18' E 014°07'0 0.0
2018-Aug-17 11:59N 66°18' E 014°07'0 0.0
2018-Aug-17 11:29N 66°18' E 014°07'0 0.0
2018-Aug-17 10:59N 66°18' E 014°07'0 0.0
2018-Aug-17 10:29N 66°18' E 014°07'0 0.0
2018-Aug-17 09:59N 66°18' E 014°07'0 0.0
2018-Aug-17 09:29N 66°18' E 014°07'0 0.0
2018-Aug-17 08:59N 66°18' E 014°07'0 0.0
2018-Aug-17 08:29N 66°18' E 014°07'0 0.0
2018-Aug-17 07:59N 66°18' E 014°07'0 0.0
2018-Aug-17 07:30N 66°18' E 014°07'0 0.0
2018-Aug-17 07:00N 66°18' E 014°07'0 0.0
2018-Aug-17 06:30N 66°18' E 014°07'0 0.0
2018-Aug-17 05:59N 66°18' E 014°07'0 0.0
2018-Aug-17 05:26N 66°18' E 014°07'0 0.0
2018-Aug-17 04:59N 66°18' E 014°07'0 0.0
2018-Aug-17 04:30N 66°18' E 014°07'3 6.7
2018-Aug-17 04:00N 66°17' E 013°59'510.1
2018-Aug-17 03:31N 66°15' E 013°48'510.0
2018-Aug-17 02:59N 66°14' E 013°35'5 9.7
2018-Aug-17 02:30N 66°14' E 013°23'4 8.5
2018-Aug-17 02:00N 66°12' E 013°14'5 9.1
2018-Aug-17 01:30N 66°10' E 013°04'5 9.6
2018-Aug-17 01:00N 66°09' E 012°52'5 9.6
2018-Aug-17 00:30N 66°12' E 012°43'510.5
2018-Aug-17 00:00N 66°14' E 012°31'510.1
2018-Aug-16 23:30N 66°16' E 012°19'510.9
2018-Aug-16 23:01N 66°19' E 012°07'510.8
2018-Aug-16 22:30N 66°22' E 011°57'5 9.8
2018-Aug-16 22:01N 66°27' E 011°51'510.0
2018-Aug-16 21:30N 66°32' E 011°51'5 9.8
2018-Aug-16 21:00N 66°37' E 011°50'5 9.6
2018-Aug-16 20:30N 66°41' E 011°50'66 9.9
2018-Aug-16 13:50N 67°46' E 012°17'411.0
2018-Aug-16 13:31N 67°49' E 012°22'611.0
2018-Aug-16 13:00N 67°54' E 012°30'510.6
2018-Aug-16 12:30N 67°59' E 012°37'510.6
2018-Aug-16 12:01N 68°03' E 012°45'510.8
2018-Aug-16 11:30N 68°07' E 012°54'510.6
2018-Aug-16 11:00N 68°11' E 013°02'510.3
2018-Aug-16 10:30N 68°16' E 013°11'510.2
2018-Aug-16 10:00N 68°19' E 013°20'510.4
2018-Aug-16 09:30N 68°24' E 013°29'510.8
2018-Aug-16 09:00N 68°28' E 013°38'511.0
2018-Aug-16 08:30N 68°32' E 013°47'510.7
2018-Aug-16 08:01N 68°36' E 013°56'510.5
2018-Aug-16 07:30N 68°40' E 014°05'510.2
2018-Aug-16 07:00N 68°45' E 014°13'510.0
2018-Aug-16 06:30N 68°48' E 014°22'510.2
2018-Aug-16 06:00N 68°53' E 014°30'510.3
2018-Aug-16 05:30N 68°56' E 014°39'510.3
2018-Aug-16 05:00N 69°01' E 014°48'510.2
2018-Aug-16 04:30N 69°04' E 014°58'510.2
2018-Aug-16 04:00N 69°08' E 015°08'510.0
2018-Aug-16 03:30N 69°11' E 015°18'510.1
2018-Aug-16 03:00N 69°15' E 015°29'5 9.9
2018-Aug-16 02:29N 69°18' E 015°40'510.1
2018-Aug-16 01:59N 69°21' E 015°51'510.1
2018-Aug-16 01:30N 69°24' E 016°02'510.1
2018-Aug-16 01:00N 69°27' E 016°14'510.2
2018-Aug-16 00:29N 69°29' E 016°28'510.6
2018-Aug-16 00:01N 69°31' E 016°41'510.7
2018-Aug-15 23:31N 69°33' E 016°55'510.7
2018-Aug-15 23:01N 69°36' E 017°09'610.7
2018-Aug-15 22:29N 69°38' E 017°23'510.3
2018-Aug-15 22:00N 69°39' E 017°37'5 9.4
2018-Aug-15 21:31N 69°38' E 017°50'611.5
2018-Aug-15 21:00N 69°33' E 018°00'511.0
2018-Aug-15 20:30N 69°31' E 018°14'611.2
2018-Aug-15 19:59N 69°32' E 018°31'611.9
2018-Aug-15 19:31N 69°34' E 018°46'611.4
2018-Aug-15 18:59N 69°38' E 018°57'4 8.9
2018-Aug-15 18:30N 69°42' E 019°04'0 0.1
2018-Aug-15 18:00N 69°42' E 019°04'0 0.0
2018-Aug-15 17:30N 69°42' E 019°04'0 0.0
2018-Aug-15 17:00N 69°42' E 019°04'0 0.0
2018-Aug-15 16:30N 69°42' E 019°04'3 6.2
2018-Aug-15 16:00N 69°39' E 018°59'2 3.3
2018-Aug-15 15:30N 69°38' E 018°56'0 0.0
2018-Aug-15 15:00N 69°38' E 018°56'0 0.0
2018-Aug-15 14:30N 69°38' E 018°56'0 0.0
2018-Aug-15 14:00N 69°38' E 018°56'0 0.0
2018-Aug-15 13:30N 69°38' E 018°56'0 0.0
2018-Aug-15 13:00N 69°38' E 018°56'0 0.0
2018-Aug-15 12:30N 69°38' E 018°56'0 0.0
2018-Aug-15 12:00N 69°38' E 018°56'0 0.0
2018-Aug-15 11:28N 69°38' E 018°56'0 0.0
2018-Aug-15 10:59N 69°38' E 018°56'0 0.0
2018-Aug-15 10:29N 69°38' E 018°56'0 0.0
2018-Aug-15 09:59N 69°38' E 018°56'0 0.0
2018-Aug-15 09:28N 69°38' E 018°56'0 0.0
2018-Aug-15 09:00N 69°38' E 018°56'0 0.0
2018-Aug-15 08:28N 69°38' E 018°56'0 0.0
2018-Aug-15 07:58N 69°38' E 018°56'0 0.0
2018-Aug-15 07:28N 69°38' E 018°56'0 0.0
2018-Aug-15 06:59N 69°38' E 018°56'0 0.0
2018-Aug-15 06:28N 69°38' E 018°56'0 0.0
2018-Aug-15 05:55N 69°38' E 018°56'0 0.0
2018-Aug-15 05:28N 69°38' E 018°56'0 0.0
2018-Aug-15 05:00N 69°38' E 018°56'0 0.0
2018-Aug-15 04:28N 69°38' E 018°56'0 0.0
2018-Aug-15 03:58N 69°38' E 018°56'0 0.0
2018-Aug-15 03:28N 69°38' E 018°56'0 0.0
2018-Aug-15 02:58N 69°38' E 018°56'0 0.0
2018-Aug-15 02:28N 69°38' E 018°56'0 0.0
2018-Aug-15 01:59N 69°38' E 018°56'0 0.0
2018-Aug-15 01:28N 69°38' E 018°56'0 0.0
2018-Aug-15 00:58N 69°38' E 018°56'0 0.0
2018-Aug-15 00:30N 69°38' E 018°56'0 0.0
2018-Aug-14 23:58N 69°38' E 018°56'0 0.0
2018-Aug-14 23:28N 69°38' E 018°56'0 0.0
2018-Aug-14 23:00N 69°38' E 018°56'0 0.0
2018-Aug-14 22:29N 69°38' E 018°56'0 0.0
2018-Aug-14 21:58N 69°38' E 018°56'0 0.0
2018-Aug-14 21:29N 69°38' E 018°56'0 0.0
2018-Aug-14 20:59N 69°38' E 018°56'0 0.0
2018-Aug-14 20:29N 69°38' E 018°56'0 0.0
2018-Aug-14 19:58N 69°38' E 018°56'0 0.0
2018-Aug-14 19:28N 69°38' E 018°56'0 0.0
2018-Aug-14 18:58N 69°38' E 018°56'0 0.0
2018-Aug-14 18:29N 69°38' E 018°56'0 0.0
2018-Aug-14 18:00N 69°38' E 018°56'0 0.0
2018-Aug-14 17:30N 69°38' E 018°56'0 0.0
2018-Aug-14 17:00N 69°38' E 018°56'0 0.0
2018-Aug-14 16:28N 69°38' E 018°56'0 0.0
2018-Aug-14 15:58N 69°38' E 018°56'0 0.0
2018-Aug-14 15:28N 69°38' E 018°56'0 0.0
2018-Aug-14 15:00N 69°38' E 018°56'0 0.0
2018-Aug-14 14:28N 69°38' E 018°56'0 0.0
2018-Aug-14 13:55N 69°38' E 018°56'0 0.0
2018-Aug-14 13:29N 69°38' E 018°56'0 0.0
2018-Aug-14 12:59N 69°38' E 018°56'0 0.0
2018-Aug-14 12:30N 69°38' E 018°56'0 0.0
2018-Aug-14 11:58N 69°38' E 018°56'0 0.0
2018-Aug-14 11:28N 69°38' E 018°56'0 0.0
2018-Aug-14 10:59N 69°38' E 018°56'0 0.0
2018-Aug-14 10:30N 69°38' E 018°56'0 0.0
2018-Aug-14 10:00N 69°38' E 018°56'0 0.0
2018-Aug-14 09:30N 69°38' E 018°56'0 0.0
2018-Aug-14 08:53N 69°38' E 018°56'0 0.0
2018-Aug-14 08:29N 69°38' E 018°56'0 0.0
2018-Aug-14 07:57N 69°38' E 018°56'0 0.0
2018-Aug-14 07:28N 69°38' E 018°56'0 0.0
2018-Aug-14 06:58N 69°38' E 018°56'0 0.0
2018-Aug-14 06:29N 69°38' E 018°56'0 0.0
2018-Aug-14 05:59N 69°38' E 018°56'0 0.0
2018-Aug-14 05:29N 69°38' E 018°56'0 0.0
2018-Aug-14 04:58N 69°38' E 018°56'0 0.0
2018-Aug-14 04:28N 69°38' E 018°56'0 0.0
2018-Aug-14 03:59N 69°38' E 018°56'0 0.0
2018-Aug-14 03:25N 69°38' E 018°56'0 0.0
2018-Aug-14 02:58N 69°38' E 018°56'0 0.0
2018-Aug-14 02:28N 69°38' E 018°56'0 0.0
2018-Aug-14 01:58N 69°38' E 018°56'0 0.0
2018-Aug-14 01:30N 69°38' E 018°56'0 0.0
2018-Aug-14 00:59N 69°38' E 018°56'0 0.0
2018-Aug-14 00:29N 69°38' E 018°56'0 0.0
2018-Aug-13 23:59N 69°38' E 018°56'0 0.0
2018-Aug-13 23:24N 69°38' E 018°56'0 0.0
2018-Aug-13 23:00N 69°38' E 018°56'0 0.0
2018-Aug-13 22:30N 69°38' E 018°56'0 0.0
2018-Aug-13 21:58N 69°38' E 018°56'0 0.0
2018-Aug-13 21:30N 69°38' E 018°56'0 0.0
2018-Aug-13 20:59N 69°38' E 018°56'0 0.0
2018-Aug-13 20:29N 69°38' E 018°56'0 0.0
2018-Aug-13 19:59N 69°38' E 018°56'0 0.0
2018-Aug-13 19:29N 69°38' E 018°56'0 0.0
2018-Aug-13 18:59N 69°38' E 018°56'0 0.0
2018-Aug-13 18:26N 69°38' E 018°56'0 0.0
2018-Aug-13 17:59N 69°38' E 018°56'0 0.0
2018-Aug-13 17:24N 69°38' E 018°56'0 0.0
2018-Aug-13 17:00N 69°38' E 018°56'0 0.0
2018-Aug-13 16:30N 69°38' E 018°56'0 0.0
2018-Aug-13 16:00N 69°38' E 018°56'0 0.0
2018-Aug-13 15:29N 69°38' E 018°56'0 0.0
2018-Aug-13 14:59N 69°38' E 018°56'0 0.0
2018-Aug-13 14:29N 69°38' E 018°56'0 0.0
2018-Aug-13 13:59N 69°38' E 018°56'0 0.0
2018-Aug-13 13:25N 69°38' E 018°56'0 0.0
2018-Aug-13 13:00N 69°38' E 018°56'0 0.0
2018-Aug-13 12:28N 69°38' E 018°56'0 0.0
2018-Aug-13 11:58N 69°38' E 018°56'0 0.0
2018-Aug-13 11:28N 69°38' E 018°56'0 0.0
2018-Aug-13 10:58N 69°38' E 018°56'0 0.0
2018-Aug-13 10:28N 69°38' E 018°56'0 0.0
2018-Aug-13 09:58N 69°38' E 018°56'0 0.0
2018-Aug-13 09:23N 69°38' E 018°56'0 0.0
2018-Aug-13 08:59N 69°38' E 018°56'0 0.0
2018-Aug-13 08:30N 69°38' E 018°56'0 0.0
2018-Aug-13 07:59N 69°38' E 018°56'0 0.0
2018-Aug-13 07:28N 69°38' E 018°56'0 0.0
2018-Aug-13 06:58N 69°38' E 018°56'0 0.0
2018-Aug-13 06:28N 69°38' E 018°56'0 0.0
2018-Aug-13 05:58N 69°38' E 018°56'0 0.0
2018-Aug-13 05:28N 69°38' E 018°56'0 0.0
2018-Aug-13 05:00N 69°38' E 018°56'0 0.0
2018-Aug-13 04:29N 69°38' E 018°56'0 0.0
2018-Aug-13 03:59N 69°38' E 018°56'0 0.0
2018-Aug-13 03:29N 69°38' E 018°56'0 0.0
2018-Aug-13 03:00N 69°38' E 018°56'3 6.7
2018-Aug-13 02:30N 69°35' E 018°51'4 7.9
2018-Aug-13 02:00N 69°33' E 018°41'510.4
2018-Aug-13 01:30N 69°31' E 018°28'510.3
2018-Aug-13 01:00N 69°29' E 018°14'4 8.8
2018-Aug-13 00:30N 69°25' E 018°07'5 9.8
2018-Aug-13 00:00N 69°21' E 018°05'5 9.6
2018-Aug-12 23:30N 69°16' E 017°58'5 9.5
2018-Aug-12 23:00N 69°12' E 018°01'5 9.9
2018-Aug-12 22:30N 69°09' E 017°50'510.4
2018-Aug-12 22:00N 69°07' E 017°36'510.4
2018-Aug-12 21:29N 69°04' E 017°23'510.8
2018-Aug-12 21:00N 68°60' E 017°15'510.5
2018-Aug-12 20:29N 68°56' E 017°06'510.1
2018-Aug-12 20:00N 68°52' E 016°58'510.0
2018-Aug-12 19:29N 68°47' E 016°51'5 9.8
2018-Aug-12 19:00N 68°43' E 016°44'510.1
2018-Aug-12 18:30N 68°39' E 016°37'5 9.8
2018-Aug-12 18:00N 68°34' E 016°32'4 7.3
2018-Aug-12 17:30N 68°34' E 016°22'4 8.8
2018-Aug-12 17:00N 68°32' E 016°11'5 9.6
2018-Aug-12 16:30N 68°27' E 016°06'5 9.6
2018-Aug-12 15:59N 68°23' E 016°01'4 8.8
2018-Aug-12 15:30N 68°20' E 015°53'5 9.6
2018-Aug-12 15:00N 68°16' E 015°44'5 9.8
2018-Aug-12 14:30N 68°13' E 015°35'5 9.8
2018-Aug-12 14:00N 68°10' E 015°24'510.4
2018-Aug-12 13:30N 68°07' E 015°12'610.7
2018-Aug-12 12:57N 68°04' E 014°59'510.7
2018-Aug-12 12:30N 68°01' E 014°49'510.3
2018-Aug-12 11:59N 67°57' E 014°39'510.3
2018-Aug-12 11:30N 67°53' E 014°31'510.2
2018-Aug-12 10:59N 67°49' E 014°22'510.4
2018-Aug-12 10:30N 67°45' E 014°14'510.3
2018-Aug-12 09:59N 67°41' E 014°05'510.1
2018-Aug-12 09:30N 67°37' E 013°59'510.0
2018-Aug-12 08:59N 67°32' E 013°51'510.0
2018-Aug-12 08:30N 67°29' E 013°43'5 9.9
2018-Aug-12 08:00N 67°25' E 013°35'510.1
2018-Aug-12 07:30N 67°21' E 013°28'510.3
2018-Aug-12 07:00N 67°17' E 013°20'510.2
2018-Aug-12 06:30N 67°13' E 013°11'5 9.8
2018-Aug-12 06:00N 67°09' E 013°02'5 9.6
2018-Aug-12 05:30N 67°06' E 012°53'5 9.7
2018-Aug-12 04:59N 67°02' E 012°45'23 9.8
2018-Aug-12 02:38N 66°44' E 012°08'1 9.5
2018-Aug-12 02:30N 66°43' E 012°06'5 9.3
2018-Aug-12 02:00N 66°39' E 011°59'4 8.8
2018-Aug-12 01:30N 66°35' E 011°55'4 8.3
2018-Aug-12 01:00N 66°31' E 011°52'4 8.6
2018-Aug-12 00:31N 66°27' E 011°48'4 8.8
2018-Aug-12 00:00N 66°23' E 011°44'4 8.9
2018-Aug-11 23:30N 66°19' E 011°40'168 8.6
2018-Aug-11 03:56N 63°58' E 008°03'3 8.2
2018-Aug-11 03:30N 63°55' E 007°59'4 8.0
2018-Aug-11 03:00N 63°52' E 007°53'4 7.8
2018-Aug-11 02:30N 63°49' E 007°48'4 8.1
2018-Aug-11 02:00N 63°45' E 007°43'4 8.2
2018-Aug-11 01:30N 63°42' E 007°37'4 8.0
2018-Aug-11 01:00N 63°38' E 007°33'4 7.7
2018-Aug-11 00:30N 63°35' E 007°28'4 7.8
2018-Aug-11 00:00N 63°32' E 007°23'4 7.6
2018-Aug-10 23:30N 63°29' E 007°18'4 7.5
2018-Aug-10 23:00N 63°26' E 007°14'4 7.6
2018-Aug-10 22:30N 63°23' E 007°09'4 7.5
2018-Aug-10 22:00N 63°20' E 007°03'4 8.1
2018-Aug-10 21:30N 63°17' E 006°58'4 8.3
2018-Aug-10 21:00N 63°13' E 006°52'4 8.5
2018-Aug-10 20:30N 63°10' E 006°46'5 9.1
2018-Aug-10 20:00N 63°07' E 006°39'5 9.3
2018-Aug-10 19:30N 63°03' E 006°33'5 9.2
2018-Aug-10 19:00N 62°59' E 006°27'4 8.9
2018-Aug-10 18:30N 62°56' E 006°21'4 8.9
2018-Aug-10 18:00N 62°52' E 006°15'5 9.0
2018-Aug-10 17:30N 62°49' E 006°08'4 8.9
2018-Aug-10 17:00N 62°46' E 006°01'4 9.0
2018-Aug-10 16:30N 62°43' E 005°55'5 9.1
2018-Aug-10 16:00N 62°39' E 005°48'5 9.5
2018-Aug-10 15:30N 62°35' E 005°41'5 9.7
2018-Aug-10 15:00N 62°32' E 005°35'5 9.8
2018-Aug-10 14:30N 62°28' E 005°28'5 9.8
2018-Aug-10 14:00N 62°24' E 005°21'5 9.8
2018-Aug-10 13:30N 62°21' E 005°14'5 9.6
2018-Aug-10 13:00N 62°17' E 005°08'5 9.6
2018-Aug-10 12:30N 62°13' E 005°01'5 9.9
2018-Aug-10 12:00N 62°09' E 004°55'5 9.7
2018-Aug-10 11:30N 62°05' E 004°48'  
Track history (hours):
 
Tides and Currents Weather Stations Pressure Air Temp Water Temp Dewpoint Dewpoint Depression Visibility Wind Speed Wind Dir Waves Ship Positions

Theseus

Last reported at 2018-Aug-20 11:12 UTC. Time now 2018-Aug-20 16:47 UTC.
Position N 60°02' E 004°32'.

Length 90 m; draft 4.8 m.

Type: Cargo ship. MMSI: 304011027.

Date/timePositionNaut miles runAvg speedWind from/ knotsBaromVisibWave heightAir tempDewpointWater temp
2018-Aug-20 11:12N 60°02' E 004°32'211.1
2018-Aug-20 11:03N 60°03' E 004°32'111.2
2018-Aug-20 11:00N 60°04' E 004°32'510.5
2018-Aug-20 10:30N 60°09' E 004°31'4 9.9
2018-Aug-20 10:03N 60°14' E 004°31'1 9.7
2018-Aug-20 10:00N 60°14' E 004°31'510.0
2018-Aug-20 09:30N 60°19' E 004°30'510.1
2018-Aug-20 09:03N 60°24' E 004°28'110.2
2018-Aug-20 08:59N 60°24' E 004°28'510.0
2018-Aug-20 08:30N 60°29' E 004°27'4 9.8
2018-Aug-20 08:03N 60°33' E 004°25'1 9.8
2018-Aug-20 08:00N 60°34' E 004°25'5 9.4
2018-Aug-20 07:30N 60°38' E 004°23'4 9.1
2018-Aug-20 07:02N 60°43' E 004°21'0 9.2
2018-Aug-20 07:00N 60°43' E 004°21'5 9.6
2018-Aug-20 06:30N 60°48' E 004°19'5 9.5
2018-Aug-20 06:01N 60°52' E 004°17'0 9.3
2018-Aug-20 06:00N 60°52' E 004°17'5 9.6
2018-Aug-20 05:30N 60°57' E 004°17'4 9.5
2018-Aug-20 05:03N 61°01' E 004°18'0 9.3
2018-Aug-20 05:00N 61°02' E 004°18'2 8.8
2018-Aug-20 04:46N 61°04' E 004°19'2 8.8
2018-Aug-20 04:30N 61°06' E 004°19'5 8.8
2018-Aug-20 04:00N 61°11' E 004°21'5 9.2
2018-Aug-20 03:29N 61°15' E 004°23'5 9.5
2018-Aug-20 03:00N 61°20' E 004°24'5 9.4
2018-Aug-20 02:30N 61°24' E 004°26'5 9.7
2018-Aug-20 02:00N 61°29' E 004°28'5 9.9
2018-Aug-20 01:29N 61°34' E 004°29'5 9.5
2018-Aug-20 01:00N 61°39' E 004°31'5 9.7
2018-Aug-20 00:30N 61°43' E 004°34'5 9.9
2018-Aug-19 23:59N 61°48' E 004°38'510.0
2018-Aug-19 23:30N 61°53' E 004°41'5 9.8
2018-Aug-19 23:00N 61°57' E 004°43'5 9.2
2018-Aug-19 22:29N 62°02' E 004°45'4 9.0
2018-Aug-19 22:00N 62°06' E 004°49'4 8.5
2018-Aug-19 21:29N 62°09' E 004°55'4 9.0
2018-Aug-19 21:00N 62°13' E 005°01'5 9.3
2018-Aug-19 20:30N 62°17' E 005°07'4 9.0
2018-Aug-19 20:00N 62°20' E 005°13'4 8.7
2018-Aug-19 19:30N 62°23' E 005°19'5 9.0
2018-Aug-19 19:00N 62°27' E 005°26'4 8.9
2018-Aug-19 18:30N 62°30' E 005°32'5 9.0
2018-Aug-19 18:00N 62°33' E 005°38'4 8.8
2018-Aug-19 17:30N 62°37' E 005°45'4 8.7
2018-Aug-19 17:00N 62°40' E 005°51'4 7.7
2018-Aug-19 16:30N 62°43' E 005°56'4 8.1
2018-Aug-19 16:00N 62°46' E 006°01'4 8.3
2018-Aug-19 15:29N 62°50' E 006°07'4 7.7
2018-Aug-19 15:00N 62°53' E 006°11'4 7.4
2018-Aug-19 14:30N 62°56' E 006°16'4 7.2
2018-Aug-19 13:59N 62°59' E 006°21'3 7.1
2018-Aug-19 13:30N 63°01' E 006°27'4 6.9
2018-Aug-19 13:00N 63°04' E 006°32'3 6.3
2018-Aug-19 12:30N 63°06' E 006°37'3 6.2
2018-Aug-19 12:00N 63°08' E 006°41'3 6.5
2018-Aug-19 11:30N 63°11' E 006°46'3 6.4
2018-Aug-19 11:00N 63°13' E 006°50'3 6.8
2018-Aug-19 10:30N 63°16' E 006°54'3 6.4
2018-Aug-19 10:00N 63°19' E 006°58'3 6.7
2018-Aug-19 09:30N 63°22' E 007°02'3 6.0
2018-Aug-19 09:00N 63°24' E 007°07'3 5.9
2018-Aug-19 08:30N 63°26' E 007°11'3 5.8
2018-Aug-19 08:00N 63°29' E 007°15'3 5.7
2018-Aug-19 07:29N 63°31' E 007°19'3 5.4
2018-Aug-19 07:00N 63°33' E 007°22'3 5.6
2018-Aug-19 06:30N 63°35' E 007°27'3 5.3
2018-Aug-19 05:59N 63°37' E 007°31'2 5.0
2018-Aug-19 05:30N 63°39' E 007°34'3 5.5
2018-Aug-19 05:00N 63°41' E 007°38'3 5.0
2018-Aug-19 04:29N 63°43' E 007°42'2 5.0
2018-Aug-19 04:00N 63°45' E 007°46'3 5.2
2018-Aug-19 03:30N 63°47' E 007°50'2 4.9
2018-Aug-19 03:00N 63°49' E 007°53'2 4.7
2018-Aug-19 02:30N 63°51' E 007°56'2 4.9
2018-Aug-19 02:00N 63°53' E 007°60'2 4.5
2018-Aug-19 01:30N 63°54' E 008°02'2 4.5
2018-Aug-19 01:00N 63°56' E 008°05'2 4.8
2018-Aug-19 00:30N 63°58' E 008°09'163 6.3
2018-Aug-17 22:42N 66°14' E 011°44'2 8.0
2018-Aug-17 22:29N 66°15' E 011°48'4 8.0
2018-Aug-17 22:00N 66°16' E 011°57'4 8.2
2018-Aug-17 21:30N 66°17' E 012°07'4 9.0
2018-Aug-17 21:01N 66°17' E 012°18'5 9.7
2018-Aug-17 20:30N 66°15' E 012°29'5 9.8
2018-Aug-17 20:00N 66°13' E 012°40'510.2
2018-Aug-17 19:30N 66°10' E 012°51'5 9.4
2018-Aug-17 19:00N 66°10' E 013°02'5 9.7
2018-Aug-17 18:30N 66°12' E 013°13'4 8.6
2018-Aug-17 18:00N 66°14' E 013°23'510.1
2018-Aug-17 17:29N 66°14' E 013°36'510.0
2018-Aug-17 17:00N 66°15' E 013°47'510.3
2018-Aug-17 16:30N 66°17' E 013°60'3 6.7
2018-Aug-17 16:00N 66°18' E 014°07'0 0.1
2018-Aug-17 15:30N 66°18' E 014°07'0 0.0
2018-Aug-17 14:59N 66°18' E 014°07'0 0.0
2018-Aug-17 13:59N 66°18' E 014°07'0 0.0
2018-Aug-17 13:29N 66°18' E 014°07'0 0.0
2018-Aug-17 12:59N 66°18' E 014°07'0 0.0
2018-Aug-17 12:29N 66°18' E 014°07'0 0.0
2018-Aug-17 11:59N 66°18' E 014°07'0 0.0
2018-Aug-17 11:29N 66°18' E 014°07'0 0.0
2018-Aug-17 10:59N 66°18' E 014°07'0 0.0
2018-Aug-17 10:29N 66°18' E 014°07'0 0.0
2018-Aug-17 09:59N 66°18' E 014°07'0 0.0
2018-Aug-17 09:29N 66°18' E 014°07'0 0.0
2018-Aug-17 08:59N 66°18' E 014°07'0 0.0
2018-Aug-17 08:29N 66°18' E 014°07'0 0.0
2018-Aug-17 07:59N 66°18' E 014°07'0 0.0
2018-Aug-17 07:30N 66°18' E 014°07'0 0.0
2018-Aug-17 07:00N 66°18' E 014°07'0 0.0
2018-Aug-17 06:30N 66°18' E 014°07'0 0.0
2018-Aug-17 05:59N 66°18' E 014°07'0 0.0
2018-Aug-17 05:26N 66°18' E 014°07'0 0.0
2018-Aug-17 04:59N 66°18' E 014°07'0 0.0
2018-Aug-17 04:30N 66°18' E 014°07'3 6.7
2018-Aug-17 04:00N 66°17' E 013°59'510.1
2018-Aug-17 03:31N 66°15' E 013°48'510.0
2018-Aug-17 02:59N 66°14' E 013°35'5 9.7
2018-Aug-17 02:30N 66°14' E 013°23'4 8.5
2018-Aug-17 02:00N 66°12' E 013°14'5 9.1
2018-Aug-17 01:30N 66°10' E 013°04'5 9.6
2018-Aug-17 01:00N 66°09' E 012°52'5 9.6
2018-Aug-17 00:30N 66°12' E 012°43'510.5
2018-Aug-17 00:00N 66°14' E 012°31'510.1
2018-Aug-16 23:30N 66°16' E 012°19'510.9
2018-Aug-16 23:01N 66°19' E 012°07'510.8
2018-Aug-16 22:30N 66°22' E 011°57'5 9.8
2018-Aug-16 22:01N 66°27' E 011°51'510.0
2018-Aug-16 21:30N 66°32' E 011°51'5 9.8
2018-Aug-16 21:00N 66°37' E 011°50'5 9.6
2018-Aug-16 20:30N 66°41' E 011°50'66 9.9
2018-Aug-16 13:50N 67°46' E 012°17'411.0
2018-Aug-16 13:31N 67°49' E 012°22'611.0
2018-Aug-16 13:00N 67°54' E 012°30'510.6
2018-Aug-16 12:30N 67°59' E 012°37'510.6
2018-Aug-16 12:01N 68°03' E 012°45'510.8
2018-Aug-16 11:30N 68°07' E 012°54'510.6
2018-Aug-16 11:00N 68°11' E 013°02'510.3
2018-Aug-16 10:30N 68°16' E 013°11'510.2
2018-Aug-16 10:00N 68°19' E 013°20'510.4
2018-Aug-16 09:30N 68°24' E 013°29'510.8
2018-Aug-16 09:00N 68°28' E 013°38'511.0
2018-Aug-16 08:30N 68°32' E 013°47'510.7
2018-Aug-16 08:01N 68°36' E 013°56'510.5
2018-Aug-16 07:30N 68°40' E 014°05'510.2
2018-Aug-16 07:00N 68°45' E 014°13'510.0
2018-Aug-16 06:30N 68°48' E 014°22'510.2
2018-Aug-16 06:00N 68°53' E 014°30'510.3
2018-Aug-16 05:30N 68°56' E 014°39'510.3
2018-Aug-16 05:00N 69°01' E 014°48'510.2
2018-Aug-16 04:30N 69°04' E 014°58'510.2
2018-Aug-16 04:00N 69°08' E 015°08'510.0
2018-Aug-16 03:30N 69°11' E 015°18'510.1
2018-Aug-16 03:00N 69°15' E 015°29'5 9.9
2018-Aug-16 02:29N 69°18' E 015°40'510.1
2018-Aug-16 01:59N 69°21' E 015°51'510.1
2018-Aug-16 01:30N 69°24' E 016°02'510.1
2018-Aug-16 01:00N 69°27' E 016°14'510.2
2018-Aug-16 00:29N 69°29' E 016°28'510.6
2018-Aug-16 00:01N 69°31' E 016°41'510.7
2018-Aug-15 23:31N 69°33' E 016°55'510.7
2018-Aug-15 23:01N 69°36' E 017°09'610.7
2018-Aug-15 22:29N 69°38' E 017°23'510.3
2018-Aug-15 22:00N 69°39' E 017°37'5 9.4
2018-Aug-15 21:31N 69°38' E 017°50'611.5
2018-Aug-15 21:00N 69°33' E 018°00'511.0
2018-Aug-15 20:30N 69°31' E 018°14'611.2
2018-Aug-15 19:59N 69°32' E 018°31'611.9
2018-Aug-15 19:31N 69°34' E 018°46'611.4
2018-Aug-15 18:59N 69°38' E 018°57'4 8.9
2018-Aug-15 18:30N 69°42' E 019°04'0 0.1
2018-Aug-15 18:00N 69°42' E 019°04'0 0.0
2018-Aug-15 17:30N 69°42' E 019°04'0 0.0
2018-Aug-15 17:00N 69°42' E 019°04'0 0.0
2018-Aug-15 16:30N 69°42' E 019°04'3 6.2
2018-Aug-15 16:00N 69°39' E 018°59'2 3.3
2018-Aug-15 15:30N 69°38' E 018°56'0 0.0
2018-Aug-15 15:00N 69°38' E 018°56'0 0.0
2018-Aug-15 14:30N 69°38' E 018°56'0 0.0
2018-Aug-15 14:00N 69°38' E 018°56'0 0.0
2018-Aug-15 13:30N 69°38' E 018°56'0 0.0
2018-Aug-15 13:00N 69°38' E 018°56'0 0.0
2018-Aug-15 12:30N 69°38' E 018°56'0 0.0
2018-Aug-15 12:00N 69°38' E 018°56'0 0.0
2018-Aug-15 11:28N 69°38' E 018°56'0 0.0
2018-Aug-15 10:59N 69°38' E 018°56'0 0.0
2018-Aug-15 10:29N 69°38' E 018°56'0 0.0
2018-Aug-15 09:59N 69°38' E 018°56'0 0.0
2018-Aug-15 09:28N 69°38' E 018°56'0 0.0
2018-Aug-15 09:00N 69°38' E 018°56'0 0.0
2018-Aug-15 08:28N 69°38' E 018°56'0 0.0
2018-Aug-15 07:58N 69°38' E 018°56'0 0.0
2018-Aug-15 07:28N 69°38' E 018°56'0 0.0
2018-Aug-15 06:59N 69°38' E 018°56'0 0.0
2018-Aug-15 06:28N 69°38' E 018°56'0 0.0
2018-Aug-15 05:55N 69°38' E 018°56'0 0.0
2018-Aug-15 05:28N 69°38' E 018°56'0 0.0
2018-Aug-15 05:00N 69°38' E 018°56'0 0.0
2018-Aug-15 04:28N 69°38' E 018°56'0 0.0
2018-Aug-15 03:58N 69°38' E 018°56'0 0.0
2018-Aug-15 03:28N 69°38' E 018°56'0 0.0
2018-Aug-15 02:58N 69°38' E 018°56'0 0.0
2018-Aug-15 02:28N 69°38' E 018°56'0 0.0
2018-Aug-15 01:59N 69°38' E 018°56'0 0.0
2018-Aug-15 01:28N 69°38' E 018°56'0 0.0
2018-Aug-15 00:58N 69°38' E 018°56'0 0.0
2018-Aug-15 00:30N 69°38' E 018°56'0 0.0
2018-Aug-14 23:58N 69°38' E 018°56'0 0.0
2018-Aug-14 23:28N 69°38' E 018°56'0 0.0
2018-Aug-14 23:00N 69°38' E 018°56'0 0.0
2018-Aug-14 22:29N 69°38' E 018°56'0 0.0
2018-Aug-14 21:58N 69°38' E 018°56'0 0.0
2018-Aug-14 21:29N 69°38' E 018°56'0 0.0
2018-Aug-14 20:59N 69°38' E 018°56'0 0.0
2018-Aug-14 20:29N 69°38' E 018°56'0 0.0
2018-Aug-14 19:58N 69°38' E 018°56'0 0.0
2018-Aug-14 19:28N 69°38' E 018°56'0 0.0
2018-Aug-14 18:58N 69°38' E 018°56'0 0.0
2018-Aug-14 18:29N 69°38' E 018°56'0 0.0
2018-Aug-14 18:00N 69°38' E 018°56'0 0.0
2018-Aug-14 17:30N 69°38' E 018°56'0 0.0
2018-Aug-14 17:00N 69°38' E 018°56'0 0.0
2018-Aug-14 16:28N 69°38' E 018°56'0 0.0
2018-Aug-14 15:58N 69°38' E 018°56'0 0.0
2018-Aug-14 15:28N 69°38' E 018°56'0 0.0
2018-Aug-14 15:00N 69°38' E 018°56'0 0.0
2018-Aug-14 14:28N 69°38' E 018°56'0 0.0
2018-Aug-14 13:55N 69°38' E 018°56'0 0.0
2018-Aug-14 13:29N 69°38' E 018°56'0 0.0
2018-Aug-14 12:59N 69°38' E 018°56'0 0.0
2018-Aug-14 12:30N 69°38' E 018°56'0 0.0
2018-Aug-14 11:58N 69°38' E 018°56'0 0.0
2018-Aug-14 11:28N 69°38' E 018°56'0 0.0
2018-Aug-14 10:59N 69°38' E 018°56'0 0.0
2018-Aug-14 10:30N 69°38' E 018°56'0 0.0
2018-Aug-14 10:00N 69°38' E 018°56'0 0.0
2018-Aug-14 09:30N 69°38' E 018°56'0 0.0
2018-Aug-14 08:53N 69°38' E 018°56'0 0.0
2018-Aug-14 08:29N 69°38' E 018°56'0 0.0
2018-Aug-14 07:57N 69°38' E 018°56'0 0.0
2018-Aug-14 07:28N 69°38' E 018°56'0 0.0
2018-Aug-14 06:58N 69°38' E 018°56'0 0.0
2018-Aug-14 06:29N 69°38' E 018°56'0 0.0
2018-Aug-14 05:59N 69°38' E 018°56'0 0.0
2018-Aug-14 05:29N 69°38' E 018°56'0 0.0
2018-Aug-14 04:58N 69°38' E 018°56'0 0.0
2018-Aug-14 04:28N 69°38' E 018°56'0 0.0
2018-Aug-14 03:59N 69°38' E 018°56'0 0.0
2018-Aug-14 03:25N 69°38' E 018°56'0 0.0
2018-Aug-14 02:58N 69°38' E 018°56'0 0.0
2018-Aug-14 02:28N 69°38' E 018°56'0 0.0
2018-Aug-14 01:58N 69°38' E 018°56'0 0.0
2018-Aug-14 01:30N 69°38' E 018°56'0 0.0
2018-Aug-14 00:59N 69°38' E 018°56'0 0.0
2018-Aug-14 00:29N 69°38' E 018°56'0 0.0
2018-Aug-13 23:59N 69°38' E 018°56'0 0.0
2018-Aug-13 23:24N 69°38' E 018°56'0 0.0
2018-Aug-13 23:00N 69°38' E 018°56'0 0.0
2018-Aug-13 22:30N 69°38' E 018°56'0 0.0
2018-Aug-13 21:58N 69°38' E 018°56'0 0.0
2018-Aug-13 21:30N 69°38' E 018°56'0 0.0
2018-Aug-13 20:59N 69°38' E 018°56'0 0.0
2018-Aug-13 20:29N 69°38' E 018°56'0 0.0
2018-Aug-13 19:59N 69°38' E 018°56'0 0.0
2018-Aug-13 19:29N 69°38' E 018°56'0 0.0
2018-Aug-13 18:59N 69°38' E 018°56'0 0.0
2018-Aug-13 18:26N 69°38' E 018°56'0 0.0
2018-Aug-13 17:59N 69°38' E 018°56'0 0.0
2018-Aug-13 17:24N 69°38' E 018°56'0 0.0
2018-Aug-13 17:00N 69°38' E 018°56'0 0.0
2018-Aug-13 16:30N 69°38' E 018°56'0 0.0
2018-Aug-13 16:00N 69°38' E 018°56'0 0.0
2018-Aug-13 15:29N 69°38' E 018°56'0 0.0
2018-Aug-13 14:59N 69°38' E 018°56'0 0.0
2018-Aug-13 14:29N 69°38' E 018°56'0 0.0
2018-Aug-13 13:59N 69°38' E 018°56'0 0.0
2018-Aug-13 13:25N 69°38' E 018°56'0 0.0
2018-Aug-13 13:00N 69°38' E 018°56'0 0.0
2018-Aug-13 12:28N 69°38' E 018°56'0 0.0
2018-Aug-13 11:58N 69°38' E 018°56'0 0.0
2018-Aug-13 11:28N 69°38' E 018°56'0 0.0
2018-Aug-13 10:58N 69°38' E 018°56'0 0.0
2018-Aug-13 10:28N 69°38' E 018°56'0 0.0
2018-Aug-13 09:58N 69°38' E 018°56'0 0.0
2018-Aug-13 09:23N 69°38' E 018°56'0 0.0
2018-Aug-13 08:59N 69°38' E 018°56'0 0.0
2018-Aug-13 08:30N 69°38' E 018°56'0 0.0
2018-Aug-13 07:59N 69°38' E 018°56'0 0.0
2018-Aug-13 07:28N 69°38' E 018°56'0 0.0
2018-Aug-13 06:58N 69°38' E 018°56'0 0.0
2018-Aug-13 06:28N 69°38' E 018°56'0 0.0
2018-Aug-13 05:58N 69°38' E 018°56'0 0.0
2018-Aug-13 05:28N 69°38' E 018°56'0 0.0
2018-Aug-13 05:00N 69°38' E 018°56'0 0.0
2018-Aug-13 04:29N 69°38' E 018°56'0 0.0
2018-Aug-13 03:59N 69°38' E 018°56'0 0.0
2018-Aug-13 03:29N 69°38' E 018°56'0 0.0
2018-Aug-13 03:00N 69°38' E 018°56'3 6.7
2018-Aug-13 02:30N 69°35' E 018°51'4 7.9
2018-Aug-13 02:00N 69°33' E 018°41'510.4
2018-Aug-13 01:30N 69°31' E 018°28'510.3
2018-Aug-13 01:00N 69°29' E 018°14'4 8.8
2018-Aug-13 00:30N 69°25' E 018°07'5 9.8
2018-Aug-13 00:00N 69°21' E 018°05'5 9.6
2018-Aug-12 23:30N 69°16' E 017°58'5 9.5
2018-Aug-12 23:00N 69°12' E 018°01'5 9.9
2018-Aug-12 22:30N 69°09' E 017°50'510.4
2018-Aug-12 22:00N 69°07' E 017°36'510.4
2018-Aug-12 21:29N 69°04' E 017°23'510.8
2018-Aug-12 21:00N 68°60' E 017°15'510.5
2018-Aug-12 20:29N 68°56' E 017°06'510.1
2018-Aug-12 20:00N 68°52' E 016°58'510.0
2018-Aug-12 19:29N 68°47' E 016°51'5 9.8
2018-Aug-12 19:00N 68°43' E 016°44'510.1
2018-Aug-12 18:30N 68°39' E 016°37'5 9.8
2018-Aug-12 18:00N 68°34' E 016°32'4 7.3
2018-Aug-12 17:30N 68°34' E 016°22'4 8.8
2018-Aug-12 17:00N 68°32' E 016°11'5 9.6
2018-Aug-12 16:30N 68°27' E 016°06'5 9.6
2018-Aug-12 15:59N 68°23' E 016°01'4 8.8
2018-Aug-12 15:30N 68°20' E 015°53'5 9.6
2018-Aug-12 15:00N 68°16' E 015°44'5 9.8
2018-Aug-12 14:30N 68°13' E 015°35'5 9.8
2018-Aug-12 14:00N 68°10' E 015°24'510.4
2018-Aug-12 13:30N 68°07' E 015°12'610.7
2018-Aug-12 12:57N 68°04' E 014°59'510.7
2018-Aug-12 12:30N 68°01' E 014°49'510.3
2018-Aug-12 11:59N 67°57' E 014°39'510.3
2018-Aug-12 11:30N 67°53' E 014°31'510.2
2018-Aug-12 10:59N 67°49' E 014°22'510.4
2018-Aug-12 10:30N 67°45' E 014°14'510.3
2018-Aug-12 09:59N 67°41' E 014°05'510.1
2018-Aug-12 09:30N 67°37' E 013°59'510.0
2018-Aug-12 08:59N 67°32' E 013°51'510.0
2018-Aug-12 08:30N 67°29' E 013°43'5 9.9
2018-Aug-12 08:00N 67°25' E 013°35'510.1
2018-Aug-12 07:30N 67°21' E 013°28'510.3
2018-Aug-12 07:00N 67°17' E 013°20'510.2
2018-Aug-12 06:30N 67°13' E 013°11'5 9.8
2018-Aug-12 06:00N 67°09' E 013°02'5 9.6
2018-Aug-12 05:30N 67°06' E 012°53'5 9.7
2018-Aug-12 04:59N 67°02' E 012°45'23 9.8
2018-Aug-12 02:38N 66°44' E 012°08'1 9.5
2018-Aug-12 02:30N 66°43' E 012°06'5 9.3
2018-Aug-12 02:00N 66°39' E 011°59'4 8.8
2018-Aug-12 01:30N 66°35' E 011°55'4 8.3
2018-Aug-12 01:00N 66°31' E 011°52'4 8.6
2018-Aug-12 00:31N 66°27' E 011°48'4 8.8
2018-Aug-12 00:00N 66°23' E 011°44'4 8.9
2018-Aug-11 23:30N 66°19' E 011°40'168 8.6
2018-Aug-11 03:56N 63°58' E 008°03'3 8.2
2018-Aug-11 03:30N 63°55' E 007°59'4 8.0
2018-Aug-11 03:00N 63°52' E 007°53'4 7.8
2018-Aug-11 02:30N 63°49' E 007°48'4 8.1
2018-Aug-11 02:00N 63°45' E 007°43'4 8.2
2018-Aug-11 01:30N 63°42' E 007°37'4 8.0
2018-Aug-11 01:00N 63°38' E 007°33'4 7.7
2018-Aug-11 00:30N 63°35' E 007°28'4 7.8
2018-Aug-11 00:00N 63°32' E 007°23'4 7.6
2018-Aug-10 23:30N 63°29' E 007°18'4 7.5
2018-Aug-10 23:00N 63°26' E 007°14'4 7.6
2018-Aug-10 22:30N 63°23' E 007°09'4 7.5
2018-Aug-10 22:00N 63°20' E 007°03'4 8.1
2018-Aug-10 21:30N 63°17' E 006°58'4 8.3
2018-Aug-10 21:00N 63°13' E 006°52'4 8.5
2018-Aug-10 20:30N 63°10' E 006°46'5 9.1
2018-Aug-10 20:00N 63°07' E 006°39'5 9.3
2018-Aug-10 19:30N 63°03' E 006°33'5 9.2
2018-Aug-10 19:00N 62°59' E 006°27'4 8.9
2018-Aug-10 18:30N 62°56' E 006°21'4 8.9
2018-Aug-10 18:00N 62°52' E 006°15'5 9.0
2018-Aug-10 17:30N 62°49' E 006°08'4 8.9
2018-Aug-10 17:00N 62°46' E 006°01'4 9.0
2018-Aug-10 16:30N 62°43' E 005°55'5 9.1
2018-Aug-10 16:00N 62°39' E 005°48'5 9.5
2018-Aug-10 15:30N 62°35' E 005°41'5 9.7
2018-Aug-10 15:00N 62°32' E 005°35'5 9.8
2018-Aug-10 14:30N 62°28' E 005°28'5 9.8
2018-Aug-10 14:00N 62°24' E 005°21'5 9.8
2018-Aug-10 13:30N 62°21' E 005°14'5 9.6
2018-Aug-10 13:00N 62°17' E 005°08'5 9.6
2018-Aug-10 12:30N 62°13' E 005°01'5 9.9
2018-Aug-10 12:00N 62°09' E 004°55'5 9.7
2018-Aug-10 11:30N 62°05' E 004°48'  

Dump ship's entire track history